createdAt,value
2018-06-09T00:01:51.984Z,19.88
2018-06-09T00:04:25.395Z,19.82
2018-06-09T00:06:58.782Z,19.80
2018-06-09T00:09:32.232Z,19.75
2018-06-09T00:12:05.669Z,19.73
2018-06-09T00:14:39.053Z,19.73
2018-06-09T00:17:12.464Z,19.74
2018-06-09T00:19:45.849Z,19.72
2018-06-09T00:22:19.261Z,19.71
2018-06-09T00:24:52.665Z,19.72
2018-06-09T00:27:26.055Z,19.73
2018-06-09T00:29:59.433Z,19.75
2018-06-09T00:32:32.824Z,19.78
2018-06-09T00:35:06.238Z,19.80
2018-06-09T00:37:39.643Z,19.77
2018-06-09T00:40:13.028Z,19.76
2018-06-09T00:42:46.420Z,19.76
2018-06-09T00:45:19.812Z,19.75
2018-06-09T00:47:53.199Z,19.78
2018-06-09T00:50:26.703Z,19.79
2018-06-09T00:53:00.079Z,19.76
2018-06-09T00:55:33.475Z,19.75
2018-06-09T00:58:06.870Z,19.78
2018-06-09T01:00:40.316Z,19.77
2018-06-09T01:03:13.683Z,19.72
2018-06-09T01:05:47.090Z,19.72
2018-06-09T01:08:20.472Z,19.69
2018-06-09T01:10:53.873Z,19.68
2018-06-09T01:13:27.288Z,19.67
2018-06-09T01:16:00.687Z,19.68
2018-06-09T01:18:34.085Z,19.67
2018-06-09T01:21:07.489Z,19.66
2018-06-09T01:23:40.910Z,19.63
2018-06-09T01:26:14.327Z,19.63
2018-06-09T01:28:47.715Z,19.60
2018-06-09T01:31:21.125Z,19.58
2018-06-09T01:33:54.520Z,19.54
2018-06-09T01:36:27.919Z,19.51
2018-06-09T01:39:01.320Z,19.50
2018-06-09T01:41:34.748Z,19.55
2018-06-09T01:44:08.126Z,19.57
2018-06-09T01:46:41.516Z,19.54
2018-06-09T01:49:14.896Z,19.50
2018-06-09T01:51:48.288Z,19.48
2018-06-09T01:54:21.668Z,19.45
2018-06-09T01:56:55.064Z,19.43
2018-06-09T01:59:28.546Z,19.39
2018-06-09T02:02:01.984Z,19.35
2018-06-09T02:04:35.363Z,19.34
2018-06-09T02:07:08.780Z,19.30
2018-06-09T02:09:42.164Z,19.25
2018-06-09T02:12:15.572Z,19.21
2018-06-09T02:14:49.006Z,19.20
2018-06-09T02:17:22.439Z,19.16
2018-06-09T02:19:55.861Z,19.13
2018-06-09T02:22:29.255Z,19.09
2018-06-09T02:25:02.641Z,19.05
2018-06-09T02:27:36.068Z,19.02
2018-06-09T02:30:09.456Z,18.98
2018-06-09T02:32:42.901Z,18.97
2018-06-09T02:35:16.281Z,18.93
2018-06-09T02:37:49.683Z,18.90
2018-06-09T02:40:23.095Z,18.83
2018-06-09T02:42:56.658Z,18.79
2018-06-09T02:45:30.051Z,18.74
2018-06-09T02:48:03.474Z,18.72
2018-06-09T02:50:36.874Z,18.71
2018-06-09T02:53:10.297Z,18.71
2018-06-09T02:55:43.681Z,18.70
2018-06-09T02:58:17.100Z,18.67
2018-06-09T03:00:51.032Z,18.64
2018-06-09T03:03:24.488Z,18.64
2018-06-09T03:05:57.908Z,18.62
2018-06-09T03:08:31.580Z,18.60
2018-06-09T03:11:04.978Z,18.58
2018-06-09T03:13:38.417Z,18.55
2018-06-09T03:16:11.799Z,18.50
2018-06-09T03:18:45.198Z,18.49
2018-06-09T03:21:18.575Z,18.50
2018-06-09T03:23:52.027Z,18.49
2018-06-09T03:26:25.473Z,18.50
2018-06-09T03:28:58.918Z,18.54
2018-06-09T03:31:32.501Z,18.52
2018-06-09T03:34:05.928Z,18.55
2018-06-09T03:36:39.317Z,18.54
2018-06-09T03:39:12.769Z,18.58
2018-06-09T03:41:46.146Z,18.64
2018-06-09T03:44:19.563Z,18.68
2018-06-09T03:46:52.967Z,18.75
2018-06-09T03:49:26.404Z,18.81
2018-06-09T03:51:59.808Z,18.88
2018-06-09T03:54:33.215Z,18.94
2018-06-09T03:57:06.608Z,18.99
2018-06-09T03:59:40.023Z,19.01
2018-06-09T04:02:13.541Z,19.12
2018-06-09T04:04:47.015Z,19.29
2018-06-09T04:07:20.508Z,19.33
2018-06-09T04:09:53.941Z,19.38
2018-06-09T04:12:27.362Z,19.42
2018-06-09T04:15:00.764Z,19.51
2018-06-09T04:17:34.159Z,19.63
2018-06-09T04:20:07.542Z,19.76
2018-06-09T04:22:41.025Z,19.90
2018-06-09T04:25:14.437Z,20.01
2018-06-09T04:27:47.830Z,20.11
2018-06-09T04:30:21.198Z,20.16
2018-06-09T04:32:54.594Z,20.24
2018-06-09T04:35:29.769Z,20.32
2018-06-09T04:38:03.185Z,20.36
2018-06-09T04:40:38.323Z,20.39
2018-06-09T04:43:12.862Z,20.45
2018-06-09T04:45:46.270Z,20.48
2018-06-09T04:48:19.676Z,20.50
2018-06-09T04:50:53.133Z,20.49
2018-06-09T04:53:26.530Z,20.48
2018-06-09T04:55:59.981Z,20.45
2018-06-09T04:58:33.395Z,20.51
2018-06-09T05:01:06.785Z,20.56
2018-06-09T05:03:40.204Z,20.64
2018-06-09T05:06:13.626Z,20.71
2018-06-09T05:08:47.052Z,20.76
2018-06-09T05:11:20.435Z,20.78
2018-06-09T05:13:53.871Z,20.77
2018-06-09T05:16:27.273Z,20.78
2018-06-09T05:19:01.529Z,20.78
2018-06-09T05:21:34.900Z,20.76
2018-06-09T05:24:08.493Z,20.75
2018-06-09T05:26:41.868Z,20.79
2018-06-09T05:29:15.272Z,20.84
2018-06-09T05:31:48.667Z,20.88
2018-06-09T05:34:22.054Z,20.93
2018-06-09T05:36:55.453Z,21.00
2018-06-09T05:39:28.871Z,21.08
2018-06-09T05:42:02.246Z,21.18
2018-06-09T05:44:35.651Z,21.24
2018-06-09T05:47:09.028Z,21.22
2018-06-09T05:49:42.428Z,21.21
2018-06-09T05:52:15.799Z,21.25
2018-06-09T05:54:49.187Z,21.29
2018-06-09T05:57:22.578Z,21.32
2018-06-09T05:59:56.005Z,21.30
2018-06-09T06:02:29.388Z,21.23
2018-06-09T06:05:02.801Z,21.15
2018-06-09T06:07:36.196Z,21.08
2018-06-09T06:10:09.613Z,21.12
2018-06-09T06:12:43.032Z,21.18
2018-06-09T06:15:16.462Z,21.33
2018-06-09T06:17:49.868Z,21.47
2018-06-09T06:20:23.363Z,21.56
2018-06-09T06:22:57.274Z,21.63
2018-06-09T06:25:30.685Z,21.82
2018-06-09T06:28:04.095Z,22.05
2018-06-09T06:30:37.479Z,22.22
2018-06-09T06:33:10.885Z,22.31
2018-06-09T06:35:44.301Z,22.47
2018-06-09T06:38:17.706Z,22.65
2018-06-09T06:40:51.112Z,22.76
2018-06-09T06:43:24.576Z,22.74
2018-06-09T06:45:57.991Z,22.74
2018-06-09T06:48:31.393Z,22.89
2018-06-09T06:51:04.848Z,23.08
2018-06-09T06:53:38.258Z,23.30
2018-06-09T06:56:11.683Z,23.44
2018-06-09T06:58:45.155Z,23.45
2018-06-09T07:01:18.619Z,23.36
2018-06-09T07:03:52.008Z,23.27
2018-06-09T07:06:25.479Z,23.33
2018-06-09T07:08:58.849Z,23.49
2018-06-09T07:11:32.549Z,23.68
2018-06-09T07:14:06.023Z,23.88
2018-06-09T07:16:39.660Z,24.11
2018-06-09T07:19:13.368Z,24.33
2018-06-09T07:21:46.807Z,24.57
2018-06-09T07:24:20.231Z,24.78
2018-06-09T07:26:53.648Z,24.93
2018-06-09T07:29:27.079Z,25.17
2018-06-09T07:32:00.524Z,25.37
2018-06-09T07:34:34.496Z,25.52
2018-06-09T07:37:08.167Z,25.58
2018-06-09T07:39:42.007Z,25.69
2018-06-09T07:42:15.836Z,25.82
2018-06-09T07:44:49.297Z,25.94
2018-06-09T07:47:22.699Z,25.96
2018-06-09T07:49:56.145Z,26.09
2018-06-09T07:52:29.547Z,26.23
2018-06-09T07:55:02.929Z,26.36
2018-06-09T07:57:36.303Z,26.53
2018-06-09T08:00:09.738Z,26.67
2018-06-09T08:02:43.133Z,26.69
2018-06-09T08:05:16.556Z,26.70
2018-06-09T08:07:49.936Z,26.83
2018-06-09T08:10:23.340Z,26.99
2018-06-09T08:12:56.808Z,27.15
2018-06-09T08:15:30.238Z,27.32
2018-06-09T08:18:03.614Z,27.43
2018-06-09T08:20:37.054Z,27.42
2018-06-09T08:23:10.441Z,27.49
2018-06-09T08:25:43.846Z,27.47
2018-06-09T08:28:17.241Z,27.54
2018-06-09T08:30:50.638Z,27.68
2018-06-09T08:33:24.070Z,27.95
2018-06-09T08:35:57.773Z,28.23
2018-06-09T08:38:31.137Z,28.51
2018-06-09T08:41:04.547Z,28.69
2018-06-09T08:43:37.916Z,28.86
2018-06-09T08:46:11.335Z,28.93
2018-06-09T08:48:44.722Z,28.90
2018-06-09T08:51:18.101Z,28.90
2018-06-09T08:53:51.532Z,28.95
2018-06-09T08:56:24.944Z,29.01
2018-06-09T08:58:58.314Z,28.95
2018-06-09T09:01:31.719Z,29.00
2018-06-09T09:04:05.085Z,29.09
2018-06-09T09:06:38.563Z,29.20
2018-06-09T09:09:11.996Z,29.28
2018-06-09T09:11:45.420Z,29.28
2018-06-09T09:14:18.831Z,29.30
2018-06-09T09:16:52.239Z,29.28
2018-06-09T09:19:25.626Z,29.30
2018-06-09T09:21:59.056Z,29.49
2018-06-09T09:24:32.430Z,29.30
2018-06-09T09:27:05.847Z,29.36
2018-06-09T09:29:39.244Z,29.44
2018-06-09T09:32:12.722Z,29.57
2018-06-09T09:34:46.081Z,29.57
2018-06-09T09:37:19.517Z,29.63
2018-06-09T09:39:52.903Z,29.72
2018-06-09T09:42:26.960Z,29.75
2018-06-09T09:45:00.346Z,29.67
2018-06-09T09:47:33.765Z,29.75
2018-06-09T09:50:07.130Z,29.81
2018-06-09T09:52:40.526Z,29.84
2018-06-09T09:55:13.905Z,29.89
2018-06-09T09:57:55.780Z,29.93
2018-06-09T10:00:34.383Z,30.03
2018-06-09T10:03:07.828Z,30.14
2018-06-09T10:05:41.208Z,30.21
2018-06-09T10:08:14.616Z,30.29
2018-06-09T10:10:48.053Z,30.38
2018-06-09T10:13:21.501Z,30.41
2018-06-09T10:15:54.921Z,30.51
2018-06-09T10:18:28.331Z,30.55
2018-06-09T10:21:01.721Z,30.60
2018-06-09T10:23:35.133Z,30.56
2018-06-09T10:26:08.635Z,30.62
2018-06-09T10:28:42.049Z,30.59
2018-06-09T10:31:15.418Z,30.64
2018-06-09T10:33:48.815Z,30.68
2018-06-09T10:36:22.175Z,30.66
2018-06-09T10:38:55.614Z,30.74
2018-06-09T10:41:29.013Z,30.69
2018-06-09T10:44:02.380Z,30.63
2018-06-09T10:46:35.826Z,30.75
2018-06-09T10:49:09.220Z,30.86
2018-06-09T10:51:42.608Z,30.93
2018-06-09T10:54:15.983Z,31.12
2018-06-09T10:56:49.412Z,31.17
2018-06-09T10:59:22.820Z,31.30
2018-06-09T11:01:56.258Z,31.31
2018-06-09T11:04:29.633Z,31.44
2018-06-09T11:07:03.060Z,31.50
2018-06-09T11:09:36.439Z,31.52
2018-06-09T11:12:09.873Z,31.64
2018-06-09T11:14:43.300Z,31.77
2018-06-09T11:17:16.802Z,31.97
2018-06-09T11:19:50.192Z,32.21
2018-06-09T11:22:23.609Z,32.25
2018-06-09T11:24:57.072Z,32.21
2018-06-09T11:27:30.487Z,32.14
2018-06-09T11:30:03.915Z,32.02
2018-06-09T11:32:37.310Z,31.91
2018-06-09T11:35:10.707Z,31.89
2018-06-09T11:37:44.103Z,31.96
2018-06-09T11:40:17.497Z,32.12
2018-06-09T11:42:50.917Z,32.30
2018-06-09T11:45:24.304Z,32.47
2018-06-09T11:47:57.774Z,32.50
2018-06-09T11:50:31.150Z,32.46
2018-06-09T11:53:11.284Z,32.51
2018-06-09T11:55:44.696Z,32.53
2018-06-09T11:58:18.132Z,32.51
2018-06-09T12:00:51.541Z,32.48
2018-06-09T12:03:25.016Z,32.53
2018-06-09T12:05:58.413Z,32.57
2018-06-09T12:08:31.828Z,32.70
2018-06-09T12:11:05.288Z,32.77
2018-06-09T12:13:38.735Z,32.89
2018-06-09T12:16:12.124Z,32.72
2018-06-09T12:18:45.568Z,32.47
2018-06-09T12:21:18.950Z,32.54
2018-06-09T12:23:52.430Z,32.69
2018-06-09T12:26:25.841Z,32.59
2018-06-09T12:28:59.272Z,32.54
2018-06-09T12:31:32.689Z,32.53
2018-06-09T12:34:06.083Z,32.53
2018-06-09T12:36:39.546Z,32.55
2018-06-09T12:39:12.975Z,32.61
2018-06-09T12:41:46.363Z,32.71
2018-06-09T12:44:19.788Z,32.84
2018-06-09T12:46:53.174Z,32.83
2018-06-09T12:49:26.594Z,32.94
2018-06-09T12:51:59.996Z,33.06
2018-06-09T12:54:33.447Z,32.89
2018-06-09T12:57:06.832Z,32.89
2018-06-09T12:59:40.295Z,32.94
2018-06-09T13:02:13.683Z,32.96
2018-06-09T13:04:47.107Z,32.92
2018-06-09T13:07:20.499Z,32.97
2018-06-09T13:09:53.941Z,32.98
2018-06-09T13:12:27.510Z,32.98
2018-06-09T13:15:01.000Z,33.02
2018-06-09T13:17:34.416Z,33.06
2018-06-09T13:20:07.850Z,32.96
2018-06-09T13:22:41.269Z,32.86
2018-06-09T13:25:14.670Z,32.84
2018-06-09T13:27:48.073Z,32.82
2018-06-09T13:30:21.526Z,32.87
2018-06-09T13:32:54.895Z,32.90
2018-06-09T13:35:28.305Z,33.01
2018-06-09T13:38:01.710Z,33.22
2018-06-09T13:40:35.119Z,33.23
2018-06-09T13:43:08.504Z,33.13
2018-06-09T13:45:41.916Z,32.92
2018-06-09T13:48:15.324Z,32.72
2018-06-09T13:50:48.772Z,32.62
2018-06-09T13:53:22.172Z,32.55
2018-06-09T13:55:55.592Z,32.56
2018-06-09T13:58:28.961Z,32.67
2018-06-09T14:01:02.370Z,32.72
2018-06-09T14:03:35.819Z,32.63
2018-06-09T14:06:09.267Z,32.51
2018-06-09T14:08:42.670Z,32.51
2018-06-09T14:11:16.074Z,32.54
2018-06-09T14:13:49.500Z,32.67
2018-06-09T14:16:22.935Z,32.89
2018-06-09T14:18:56.400Z,32.94
2018-06-09T14:21:29.806Z,32.93
2018-06-09T14:24:03.278Z,32.97
2018-06-09T14:26:36.797Z,32.98
2018-06-09T14:29:10.252Z,32.92
2018-06-09T14:31:43.644Z,32.83
2018-06-09T14:34:17.080Z,32.69
2018-06-09T14:36:50.486Z,32.55
2018-06-09T14:39:23.958Z,32.45
2018-06-09T14:41:57.575Z,32.50
2018-06-09T14:44:30.989Z,32.60
2018-06-09T14:47:04.431Z,32.72
2018-06-09T14:49:37.871Z,32.83
2018-06-09T14:52:11.265Z,32.90
2018-06-09T14:54:44.697Z,33.04
2018-06-09T14:57:18.086Z,32.86
2018-06-09T14:59:51.560Z,33.41
2018-06-09T15:02:24.985Z,33.32
2018-06-09T15:04:58.375Z,33.18
2018-06-09T15:07:31.768Z,33.07
2018-06-09T15:10:05.218Z,32.96
2018-06-09T15:12:38.619Z,32.93
2018-06-09T15:15:12.063Z,32.85
2018-06-09T15:17:46.255Z,32.80
2018-06-09T15:20:19.691Z,32.68
2018-06-09T15:22:56.434Z,32.62
2018-06-09T15:25:30.361Z,32.66
2018-06-09T15:28:03.818Z,32.55
2018-06-09T15:30:38.638Z,32.42
2018-06-09T15:33:12.183Z,32.37
2018-06-09T15:35:45.707Z,32.35
2018-06-09T15:38:19.185Z,32.24
2018-06-09T15:40:52.723Z,32.16
2018-06-09T15:43:26.180Z,31.89
2018-06-09T15:45:59.606Z,31.84
2018-06-09T15:48:33.079Z,31.69
2018-06-09T15:51:06.572Z,31.45
2018-06-09T15:53:39.976Z,31.48
2018-06-09T15:56:13.384Z,31.42
2018-06-09T15:58:46.798Z,31.50
2018-06-09T16:01:20.253Z,31.48
2018-06-09T16:03:53.634Z,31.43
2018-06-09T16:06:27.602Z,31.43
2018-06-09T16:09:01.332Z,31.44
2018-06-09T16:11:35.049Z,31.39
2018-06-09T16:14:09.204Z,31.31
2018-06-09T16:16:43.574Z,31.19
2018-06-09T16:19:17.929Z,31.01
2018-06-09T16:21:51.361Z,30.89
2018-06-09T16:24:24.952Z,30.78
2018-06-09T16:26:58.562Z,30.71
2018-06-09T16:29:32.456Z,30.55
2018-06-09T16:32:06.091Z,30.42
2018-06-09T16:34:39.584Z,30.32
2018-06-09T16:37:15.631Z,30.32
2018-06-09T16:39:50.844Z,30.35
2018-06-09T16:42:24.525Z,30.23
2018-06-09T16:44:58.068Z,30.00
2018-06-09T16:47:31.666Z,29.88
2018-06-09T16:50:05.302Z,29.70
2018-06-09T16:52:38.915Z,29.52
2018-06-09T16:55:12.535Z,29.40
2018-06-09T16:57:45.912Z,29.30
2018-06-09T17:00:19.283Z,29.21
2018-06-09T17:02:52.723Z,29.09
2018-06-09T17:05:26.153Z,29.01
2018-06-09T17:07:59.576Z,28.94
2018-06-09T17:10:32.947Z,28.73
2018-06-09T17:13:06.336Z,28.61
2018-06-09T17:15:39.761Z,28.60
2018-06-09T17:18:13.161Z,28.60
2018-06-09T17:20:46.586Z,28.59
2018-06-09T17:23:19.956Z,28.61
2018-06-09T17:25:53.370Z,28.61
2018-06-09T17:28:26.812Z,28.60
2018-06-09T17:31:00.218Z,28.59
2018-06-09T17:33:33.612Z,28.57
2018-06-09T17:36:07.028Z,28.52
2018-06-09T17:38:40.421Z,28.47
2018-06-09T17:41:13.853Z,28.42
2018-06-09T17:43:47.237Z,28.39
2018-06-09T17:46:20.651Z,28.38
2018-06-09T17:48:54.217Z,28.30
2018-06-09T17:51:27.640Z,28.22
2018-06-09T17:54:01.046Z,28.17
2018-06-09T17:56:35.047Z,28.07
2018-06-09T17:59:08.572Z,28.02
2018-06-09T18:01:41.962Z,27.96
2018-06-09T18:04:15.346Z,27.88
2018-06-09T18:06:48.758Z,27.85
2018-06-09T18:09:22.142Z,27.84
2018-06-09T18:11:55.544Z,27.87
2018-06-09T18:14:28.948Z,27.88
2018-06-09T18:17:02.368Z,27.87
2018-06-09T18:19:35.814Z,27.83
2018-06-09T18:22:10.333Z,27.79
2018-06-09T18:24:43.721Z,27.77
2018-06-09T18:27:17.123Z,27.73
2018-06-09T18:29:50.496Z,27.68
2018-06-09T18:32:23.899Z,27.62
2018-06-09T18:34:57.340Z,27.57
2018-06-09T18:37:30.744Z,27.56
2018-06-09T18:40:04.178Z,27.55
2018-06-09T18:42:37.732Z,27.54
2018-06-09T18:45:11.174Z,27.49
2018-06-09T18:47:44.588Z,27.49
2018-06-09T18:50:17.986Z,27.48
2018-06-09T18:52:51.404Z,27.51
2018-06-09T18:55:24.787Z,27.53
2018-06-09T18:57:58.189Z,27.52
2018-06-09T19:00:31.583Z,27.50
2018-06-09T19:03:05.010Z,27.39
2018-06-09T19:05:38.469Z,27.33
2018-06-09T19:08:11.890Z,27.30
2018-06-09T19:10:45.296Z,27.24
2018-06-09T19:13:18.729Z,27.19
2018-06-09T19:15:52.128Z,27.09
2018-06-09T19:18:25.576Z,27.04
2018-06-09T19:20:58.999Z,26.94
2018-06-09T19:23:32.433Z,26.88
2018-06-09T19:26:05.844Z,26.80
2018-06-09T19:28:39.273Z,26.70
2018-06-09T19:31:12.684Z,26.56
2018-06-09T19:33:46.108Z,26.47
2018-06-09T19:36:19.517Z,26.41
2018-06-09T19:38:52.957Z,26.37
2018-06-09T19:41:26.466Z,26.28
2018-06-09T19:43:59.875Z,26.23
2018-06-09T19:46:33.280Z,26.18
2018-06-09T19:49:06.701Z,26.11
2018-06-09T19:51:40.333Z,26.03
2018-06-09T19:54:15.637Z,25.92
2018-06-09T19:56:49.784Z,25.84
2018-06-09T19:59:24.239Z,25.77
2018-06-09T20:01:57.956Z,25.70
2018-06-09T20:04:31.463Z,25.63
2018-06-09T20:07:04.884Z,25.58
2018-06-09T20:09:38.316Z,25.54
2018-06-09T20:12:12.359Z,25.50
2018-06-09T20:14:46.688Z,25.48
2018-06-09T20:17:20.092Z,25.46
2018-06-09T20:19:53.778Z,25.50
2018-06-09T20:22:27.752Z,25.49
2018-06-09T20:25:01.307Z,25.45
2018-06-09T20:27:34.716Z,25.36
2018-06-09T20:30:08.118Z,25.33
2018-06-09T20:32:41.619Z,25.29
2018-06-09T20:35:16.284Z,25.27
2018-06-09T20:37:49.959Z,25.21
2018-06-09T20:40:23.779Z,25.18
2018-06-09T20:42:58.239Z,25.14
2018-06-09T20:45:31.930Z,25.16
2018-06-09T20:48:06.508Z,25.18
2018-06-09T20:50:39.958Z,25.20
2018-06-09T20:53:13.371Z,25.21
2018-06-09T20:55:46.766Z,25.23
2018-06-09T20:58:20.313Z,25.31
2018-06-09T21:00:53.757Z,25.35
2018-06-09T21:03:28.135Z,25.40
2018-06-09T21:06:02.568Z,25.43
2018-06-09T21:08:36.424Z,25.46
2018-06-09T21:11:10.157Z,25.47
2018-06-09T21:13:44.676Z,25.44
2018-06-09T21:16:18.632Z,25.43
2018-06-09T21:18:52.853Z,25.39
2018-06-09T21:21:29.473Z,25.36
2018-06-09T21:24:03.382Z,25.34
2018-06-09T21:26:42.572Z,25.29
2018-06-09T21:29:21.925Z,25.28
2018-06-09T21:31:56.165Z,25.20
2018-06-09T21:34:46.369Z,25.12
2018-06-09T21:37:25.498Z,25.06
2018-06-09T21:40:05.524Z,25.05
2018-06-09T21:42:44.624Z,25.01
2018-06-09T21:45:28.483Z,24.97
2018-06-09T21:48:02.191Z,24.93
2018-06-09T21:50:36.389Z,24.87
2018-06-09T21:53:09.857Z,24.82
2018-06-09T21:55:43.340Z,24.77
2018-06-09T21:58:16.745Z,24.70
2018-06-09T22:00:50.147Z,24.66
2018-06-09T22:03:23.626Z,24.63
2018-06-09T22:05:57.548Z,24.60
2018-06-09T22:08:31.292Z,24.54
2018-06-09T22:11:04.759Z,24.48
2018-06-09T22:13:38.183Z,24.46
2018-06-09T22:16:11.624Z,24.44
2018-06-09T22:18:45.386Z,24.40
2018-06-09T22:21:18.804Z,24.37
2018-06-09T22:23:52.178Z,24.32
2018-06-09T22:26:25.609Z,24.33
2018-06-09T22:28:58.999Z,24.29
2018-06-09T22:31:32.400Z,24.27
2018-06-09T22:34:05.989Z,24.25
2018-06-09T22:36:39.593Z,24.23
2018-06-09T22:39:13.105Z,24.21
2018-06-09T22:41:46.782Z,24.21
2018-06-09T22:44:20.231Z,24.19
2018-06-09T22:46:53.728Z,24.16
2018-06-09T22:49:27.123Z,24.11
2018-06-09T22:52:00.529Z,24.06
2018-06-09T22:54:33.903Z,24.00
2018-06-09T22:57:07.332Z,23.93
2018-06-09T22:59:40.712Z,23.85
2018-06-09T23:02:14.169Z,23.74
2018-06-09T23:04:47.519Z,23.68
2018-06-09T23:07:20.933Z,23.61
2018-06-09T23:09:54.331Z,23.55
2018-06-09T23:12:27.775Z,23.48
2018-06-09T23:15:01.220Z,23.42
2018-06-09T23:17:34.584Z,23.33
2018-06-09T23:20:08.012Z,23.28
2018-06-09T23:22:41.408Z,23.24
2018-06-09T23:25:14.792Z,23.20
2018-06-09T23:27:48.186Z,23.16
2018-06-09T23:30:21.576Z,23.10
2018-06-09T23:32:55.157Z,23.06
2018-06-09T23:35:28.559Z,23.01
2018-06-09T23:38:01.930Z,22.96
2018-06-09T23:40:35.404Z,22.94
2018-06-09T23:43:08.802Z,22.85
2018-06-09T23:45:42.208Z,22.77
2018-06-09T23:48:15.770Z,22.75
2018-06-09T23:50:49.189Z,22.73
2018-06-09T23:53:22.631Z,22.67
2018-06-09T23:55:56.103Z,22.61
2018-06-09T23:58:29.466Z,22.60
